Victor Harbour, South Australia

7:44 AM ACDT on February 01, 2015 (GMT +1030)
Goolwa South | Change Station
CLOSE
Current Station
Personal Weather Station
Location: Goolwa South, SOUTH AUSTRALIA
Elevation: 22 ft
Nearby Weather Stations

Elev 22 ft 35.51 °S, 138.78 °E | Updated 7 seconds ago

Scattered Clouds
Scattered Clouds
59.4 °F
Feels Like 59.4 °F
N
9.3
Wind Variable Wind from SSE
Gusts 18.3 mph

Today
High -- | Low -- °F
--% Chance of Precip.
Yesterday
High -- | Low -- °F
Precip. -- in
6:33 AM 8:24 PM
Waxing Gibbous, 91% visible
Pressure 30.04 in
Visibility 6.2 miles
Clouds Few 1900 ft
Scattered Clouds 2700 ft
Dew Point 55 °F
Humidity 85%
Rainfall 0.02 in
Snow Depth Not available.
UV 1.0 out of 12
Pollen Not available.
Air Quality Not available.
Flu Activity Not available.
METAR YPAD 312100Z 19008KT 9999 VCSH FEW019 SCT027 15/12 Q1017 NOSIG

More Conditions Fewer Conditions

Pressure 30.04 in
Visibility 6.2 miles
Clouds Few 1900 ft
Scattered Clouds 2700 ft
Dew Point 55 °F
Humidity 85%
Rainfall 0.02 in
Snow Depth Not available.
UV 1.0 out of 12
Pollen Not available.
Air Quality Not available.
Flu Activity Not available.
METAR YPAD 312100Z 19008KT 9999 VCSH FEW019 SCT027 15/12 Q1017 NOSIG

More Conditions Fewer Conditions

10-Day Weather Forecast

Almanac

Astronomy

Feb. 01, 2015 Rise Set
Actual Time
Civil Twilight
Nautical Twilight
Astronomical Twilight
Moon
Length of Visible Light
Length of Day
Tomorrow will be .
, % of the Moon is Illuminated

Today's Extremes

Country Highs Country Lows

Community

WunderPhotos

Upload Photos

1,792,203 photos uploaded!

WunderBlogs® & News

Nearby

Air Quality

  Air Quality AQ Index Pollutant
Not available.

Snow Depth

Station Depth Elevation

Earthquake Activity

City Distance Mag. Time & Date
Minimum magnitude displayed is 2.5.

Coastal Water Temperatures

Place Temperature

Nearby Weather Stations